Flugplatz Nordhorn-Lingen

EDWN · Dolna Saksonia, Niemcy

2 października 2022

Czas Kod Pogoda Temp. Widoczność Sufit Wiatr METAR/SPECI
23:20
V
9 °C 10 km+ - 230° 230° 6 kt METAR EDLW 022120Z AUTO 23006KT 9999 // NCD 09/08 Q1023
22:50
V
10 °C 10 km+ - 230° 230° 5 kt METAR EDLW 022050Z AUTO 23005KT 9999 // NCD 10/08 Q1023
22:20
V
10 °C 10 km+ - 240° 240° 4 kt METAR EDLW 022020Z AUTO 24004KT 9999 // NCD 10/08 Q1022
21:50
V
11 °C 10 km+ - 250° 250° 4 kt METAR EDLW 021950Z 25004KT 230V290 CAVOK 11/08 Q1022
21:20
V
12 °C 10 km+ - 240° 240° 4 kt METAR EDLW 021920Z 24004KT CAVOK 12/08 Q1022
20:50
V
11 °C 10 km+ - 250° 250° 4 kt METAR EDLW 021850Z 25004KT CAVOK 11/08 Q1021
20:20
V
12 °C 10 km+ - 260° 260° 3 kt METAR EDLW 021820Z 26003KT 230V290 CAVOK 12/08 Q1021
19:50
V
13 °C 10 km+ - Var Var 2 kt METAR EDLW 021750Z VRB02KT CAVOK 13/08 Q1020
19:20
V
13 °C 10 km+ - Var Var 2 kt METAR EDLW 021720Z VRB02KT CAVOK 13/09 Q1020
18:50
V
14 °C 10 km+ - 270° 270° 4 kt METAR EDLW 021650Z 27004KT 210V320 9999 FEW036 14/09 Q1019
18:20
V
15 °C 10 km+ - 260° 260° 5 kt METAR EDLW 021620Z 26005KT 230V320 CAVOK 15/09 Q1019
17:50
V
14 °C 10 km+ - 260° 260° 6 kt METAR EDLW 021550Z 26006KT 230V320 CAVOK 14/10 Q1019
17:20
V
16 °C 10 km+ - 250° 250° 7 kt METAR EDLW 021520Z 25007KT 220V300 CAVOK 16/10 Q1018
16:50
V
15 °C 10 km+ - 260° 260° 6 kt METAR EDLW 021450Z 26006KT 220V350 9999 FEW032 SCT040 15/09 Q1018
16:20
V
16 °C 10 km+ 5.000 ft 280° 280° 5 kt METAR EDLW 021420Z 28005KT 220V350 9999 SCT034 BKN050 16/10 Q1018
15:50
V
16 °C 10 km+ - 260° 260° 9 kt METAR EDLW 021350Z 26009KT 230V300 9999 FEW033 16/10 Q1018
15:20
V
16 °C 10 km+ - 280° 280° 6 kt METAR EDLW 021320Z 28006KT 180V350 9999 FEW032 16/10 Q1018
14:50
V
16 °C 10 km+ 3.800 ft 250° 250° 8 kt METAR EDLW 021250Z 25008KT 230V330 9999 FEW032 BKN038 16/10 Q1018
14:20
V
16 °C 10 km+ - 270° 270° 7 kt METAR EDLW 021220Z 27007KT 230V330 9999 FEW031 16/10 Q1017
13:50
V
16 °C 10 km+ 3.000 ft 260° 260° 8 kt METAR EDLW 021150Z 26008KT 230V310 9999 SCT017 BKN030 16/12 Q1017
13:20
M
15 °C 10 km+ 1.700 ft 250° 250° 9 kt METAR EDLW 021120Z 25009KT 230V290 9999 BKN017 15/11 Q1017
12:50
M
15 °C 10 km+ 1.800 ft 260° 260° 6 kt METAR EDLW 021050Z 26006KT 230V300 9999 FEW016 BKN018 15/12 Q1017
12:20
M
15 °C 10 km+ 2.000 ft 250° 250° 9 kt METAR EDLW 021020Z 25009KT 230V320 9999 SCT016 BKN020 15/12 Q1017
11:50
M
15 °C 10 km+ 2.700 ft 240° 240° 8 kt METAR EDLW 020950Z 24008KT 220V280 9999 SCT013 BKN027 15/12 Q1017
11:20
M
15 °C 10 km+ 1.200 ft 240° 240° 9 kt METAR EDLW 020920Z 24009KT 9999 BKN012 15/13 Q1016
10:50
M
15 °C 10 km+ 1.400 ft 240° 240° 9 kt METAR EDLW 020850Z 24009KT 9999 SCT011 BKN014 15/13 Q1016
10:20
M
14 °C 10 km+ 1.400 ft 240° 240° 9 kt METAR EDLW 020820Z 24009KT 9999 FEW010 BKN014 14/12 Q1016
09:50
M
14 °C 10 km+ 1.100 ft 240° 240° 10 kt METAR EDLW 020750Z 24010KT 9999 BKN011 BKN024 OVC034 14/12 Q1016
09:20
M
14 °C 10 km+ 2.800 ft 230° 230° 9 kt METAR EDLW 020720Z 23009KT 9999 FEW011 SCT022 OVC028 14/12 Q1016
08:50
V
13 °C 10 km+ - 230° 230° 8 kt METAR EDLW 020650Z 23008KT 9999 FEW015 SCT024 13/11 Q1015
08:20
V
13 °C 10 km+ - 230° 230° 10 kt METAR EDLW 020620Z 23010KT 9999 FEW013 13/11 Q1015
07:50
M
13 °C 10 km+ 1.400 ft 230° 230° 10 kt METAR EDLW 020550Z 23010KT 9999 BKN014 13/11 Q1015
07:20
V
13 °C 10 km+ 3.000 ft 220° 220° 12 kt METAR EDLW 020520Z 22012KT 9999 SCT012 BKN030 13/12 Q1015
06:50
M
14 °C 10 km+ 1.400 ft 230° 230° 9 kt METAR EDLW 020450Z 23009KT 9999 BKN014 BKN031 14/12 Q1015
06:20
M
13 °C 10 km+ 1.200 ft 230° 230° 10 kt METAR EDLW 020420Z 23010KT 9999 BKN012 BKN030 13/12 Q1014
05:50
M
14 °C 10 km+ 1.200 ft 230° 230° 12 kt METAR EDLW 020350Z 23012KT 9999 BKN012 14/12 Q1015
05:20
M
13 °C 10 km+ 1.400 ft 230° 230° 12 kt METAR EDLW 020320Z 23012KT 9999 FEW012 BKN014 13/11 Q1015
04:50
M
13 °C 10 km+ 2.800 ft 230° 230° 12 kt METAR EDLW 020250Z AUTO 23012KT 9999 // SCT012/// BKN028/// 13/11 Q1014
04:20
M
13 °C 10 km+ 1.200 ft 220° 220° 14 kt METAR EDLW 020220Z AUTO 22014KT 9999 // BKN012/// BKN019/// BKN034/// 13/12 Q1014
03:50
M
13 °C 10 km+ 1.200 ft 230° 230° 14 kt METAR EDLW 020150Z AUTO 23014KT 9999 // BKN012/// BKN110/// 13/12 Q1015
03:20
M
13 °C 10 km+ 1.200 ft 220° 220° 12 kt METAR EDLW 020120Z AUTO 22012KT 9999 // BKN012/// 13/11 Q1015
02:50
V
13 °C 10 km+ - 220° 220° 11 kt METAR EDLW 020050Z AUTO 22011KT 9999 // FEW013/// 13/11 Q1014
02:20
V
12 °C 10 km+ - 210° 210° 11 kt METAR EDLW 020020Z AUTO 21011KT 9999 // FEW029/// 12/10 Q1014
01:50
V
12 °C 10 km+ - 210° 210° 12 kt METAR EDLW 012350Z AUTO 21012KT 9999 // NCD 12/10 Q1014
01:20
V
12 °C 10 km+ - 210° 210° 11 kt METAR EDLW 012320Z AUTO 21011KT 9999 // NCD 12/09 Q1014
00:50
V
12 °C 10 km+ - 220° 220° 12 kt METAR EDLW 012250Z AUTO 22012KT 9999 // FEW068/// 12/09 Q1014
00:20
V
13 °C 10 km+ - 220° 220° 11 kt METAR EDLW 012220Z AUTO 22011KT 9999 // SCT057/// SCT078/// 13/10 Q1013

1 października 2022

Czas Kod Pogoda Temp. Widoczność Sufit Wiatr METAR/SPECI
23:50
V
12 °C 10 km+ 7.700 ft 220° 220° 9 kt METAR EDLW 012150Z AUTO 22009KT 9999 // FEW050/// BKN077/// 12/09 Q1013
23:20
V
12 °C 10 km+ 6.400 ft 220° 220° 10 kt METAR EDLW 012120Z AUTO 22010KT 9999 // FEW055/// BKN064/// BKN072/// 12/09 Q1013
22:50
V
12 °C 10 km+ - 220° 220° 9 kt METAR EDLW 012050Z 22009KT CAVOK 12/09 Q1013
22:20
V
12 °C 10 km+ - 220° 220° 10 kt METAR EDLW 012020Z 22010KT CAVOK 12/09 Q1012
21:50
V
12 °C 10 km+ - 210° 210° 11 kt METAR EDLW 011950Z 21011KT CAVOK 12/09 Q1012
21:20
V
12 °C 10 km+ - 220° 220° 8 kt METAR EDLW 011920Z 22008KT CAVOK 12/09 Q1012
20:50
V
11 °C 10 km+ - 220° 220° 7 kt METAR EDLW 011850Z 22007KT CAVOK 11/09 Q1011
20:20
V
12 °C 10 km+ - 230° 230° 8 kt METAR EDLW 011820Z 23008KT 9999 FEW038 12/09 Q1011
19:50
V
13 °C 10 km+ - 230° 230° 7 kt METAR EDLW 011750Z 23007KT 9999 FEW044 13/09 Q1010
19:20
V
14 °C 10 km+ - 240° 240° 8 kt METAR EDLW 011720Z 24008KT CAVOK 14/10 Q1009
18:50
V
14 °C 10 km+ - 250° 250° 8 kt METAR EDLW 011650Z 25008KT 220V290 CAVOK 14/10 Q1009
18:20
V
14 °C 10 km+ - 250° 250° 9 kt METAR EDLW 011620Z 25009KT CAVOK 14/10 Q1008
17:50
V
14 °C 10 km+ - 250° 250° 9 kt METAR EDLW 011550Z 25009KT 9999 FEW034TCU 14/10 Q1008
17:20
V
15 °C 10 km+ - 250° 250° 11 kt METAR EDLW 011520Z 25011KT 9999 VCSH FEW045TCU 15/10 Q1007
16:50
V
15 °C 10 km+ - 250° 250° 8 kt METAR EDLW 011450Z 25008KT 9999 FEW020CB 15/12 Q1007
16:20
M
14 °C 10 km+ 2.400 ft 250° 250° 13 kt METAR EDLW 011420Z 25013KT 9999 VCSH BKN024CB 14/11 Q1007
15:50
V
13 °C 8 km 4.100 ft 230° 230° 13 kt METAR EDLW 011350Z 23013KT 8000 VCTS FEW005 SCT032 BKN041CB 13/11 Q1006
15:20
V
15 °C 10 km+ 3.900 ft 260° 260° 5 kt METAR EDLW 011320Z 26005KT 210V320 9999 VCSH FEW031 BKN039TCU 15/11 Q1006
14:50
M
14 °C 7 km 2.000 ft 230° 230° 16 kt METAR EDLW 011250Z 23016KT 7000 -SHRA FEW010 BKN020TCU 14/12 Q1006
14:20
M
16 °C 10 km+ 2.200 ft 230° 230° 15 kt METAR EDLW 011220Z 23015KT 9999 FEW010 SCT016 BKN022 16/12 Q1005
13:50
M
15 °C 10 km+ 1.300 ft 230° 230° 16 kt METAR EDLW 011150Z 23016KT 9999 BKN013 15/12 Q1005
13:20
V
15 °C 10 km+ - 220° 220° 14 kt METAR EDLW 011120Z 22014KT 9999 SCT011 15/12 Q1005
12:50
M
14 °C 10 km+ 1.100 ft 220° 220° 13 kt METAR EDLW 011050Z 22013KT 9999 -RA BKN011 14/12 Q1004
12:20
M
14 °C 10 km+ 1.200 ft 230° 230° 12 kt METAR EDLW 011020Z 23012KT 9999 OVC012 14/12 Q1004
11:50
M
14 °C 10 km+ 1.100 ft 220° 220° 13 kt METAR EDLW 010950Z 22013KT 9999 BKN011 14/12 Q1004
11:20
M
13 °C 10 km+ 1.200 ft 210° 210° 13 kt METAR EDLW 010920Z 21013KT 9999 BKN012 OVC031 13/12 Q1004
10:50
M
12 °C 10 km+ 1.100 ft 210° 210° 13 kt METAR EDLW 010850Z 21013KT 9999 -RA BKN011 OVC030 12/11 Q1003
10:20
M
12 °C 10 km+ 1.200 ft 210° 210° 15 kt METAR EDLW 010820Z 21015KT 9999 -RA FEW006 BKN012 OVC019 12/10 Q1003
09:50
M
11 °C 9 km 1.400 ft 200° 200° 15 kt METAR EDLW 010750Z 20015KT 9000 -RA FEW007 OVC014 11/10 Q1003
09:20
M
11 °C 10 km+ 1.700 ft 210° 210° 15 kt METAR EDLW 010720Z 21015KT 9999 -RA FEW009 OVC017 11/10 Q1003
08:50
M
11 °C 10 km+ 2.300 ft 200° 200° 17 kt METAR EDLW 010650Z 20017KT 9999 -RA FEW010 OVC023 11/10 Q1003
08:20
M
11 °C 10 km+ 2.600 ft 210° 210° 16 kt METAR EDLW 010620Z 21016KT 9999 -RA FEW011 OVC026 11/09 Q1002
07:50
V
11 °C 10 km+ 4.600 ft 200° 200° 16 kt METAR EDLW 010550Z 20016KT 9999 FEW018 SCT028 BKN046 11/09 Q1002
07:20
V
11 °C 10 km+ 3.400 ft 190° 190° 18 kt METAR EDLW 010520Z 19018KT 9999 FEW023 BKN034 OVC044 11/09 Q1002
06:50
V
10 °C 10 km+ - 190° 190° 18 - 29 kt METAR EDLW 010450Z 19018G29KT 9999 -RA FEW010 SCT039 10/09 Q1002
06:20
V
10 °C 10 km+ 4.400 ft 190° 190° 18 - 29 kt METAR EDLW 010420Z 19018G29KT 9999 -RA FEW010 BKN044 10/08 Q1003
05:50
V
10 °C 10 km+ 6.900 ft 190° 190° 19 kt METAR EDLW 010350Z 19019KT 9999 FEW019 SCT052 BKN069 10/08 Q1003
05:20
V
10 °C 10 km+ - 200° 200° 16 kt METAR EDLW 010320Z 20016KT 9999 -RA FEW023 SCT045 10/08 Q1003
04:50
V
10 °C 10 km+ 6.600 ft 180° 180° 14 kt METAR EDLW 010250Z AUTO 18014KT 9999 // SCT055/// BKN066/// 10/08 Q1003
04:20
V
10 °C 10 km+ 5.900 ft 180° 180° 14 kt METAR EDLW 010220Z AUTO 18014KT 9999 // FEW046/// BKN059/// 10/08 Q1004
03:50
V
11 °C 10 km+ 5.900 ft 190° 190° 13 kt METAR EDLW 010150Z AUTO 19013KT 9999 // FEW010/// SCT047/// BKN059/// 11/07 Q1005
03:20
V
12 °C 10 km+ 5.300 ft 190° 190° 13 kt METAR EDLW 010120Z AUTO 19013KT 9999 // SCT035/// BKN053/// BKN065/// 12/06 Q1005
02:50
V
12 °C 10 km+ - 190° 190° 14 kt METAR EDLW 010050Z AUTO 19014KT 9999 // FEW049/// 12/06 Q1006
02:20
V
13 °C 10 km+ - 190° 190° 13 kt METAR EDLW 010020Z AUTO 19013KT 9999 // NCD 13/06 Q1006
01:50
V
12 °C 10 km+ - 190° 190° 12 kt METAR EDLW 302350Z AUTO 19012KT 9999 // NCD 12/06 Q1007
01:20
V
12 °C 10 km+ - 190° 190° 12 kt METAR EDLW 302320Z AUTO 19012KT 9999 // NCD 12/06 Q1007
00:50
V
12 °C 10 km+ - 190° 190° 12 kt METAR EDLW 302250Z AUTO 19012KT 9999 // NCD 12/06 Q1008
00:20
V
12 °C 10 km+ - 190° 190° 10 kt METAR EDLW 302220Z AUTO 19010KT 9999 // NCD 12/06 Q1008

30 września 2022

Czas Kod Pogoda Temp. Widoczność Sufit Wiatr METAR/SPECI
23:50
V
12 °C 10 km+ - 190° 190° 10 kt METAR EDLW 302150Z AUTO 19010KT 9999 // NCD 12/05 Q1008
23:20
V
11 °C 10 km+ - 180° 180° 9 kt METAR EDLW 302120Z AUTO 18009KT 9999 // NCD 11/06 Q1008
22:50
V
11 °C 10 km+ - 190° 190° 10 kt METAR EDLW 302050Z 19010KT CAVOK 11/05 Q1009
22:20
V
11 °C 10 km+ - 180° 180° 8 kt METAR EDLW 302020Z 18008KT CAVOK 11/05 Q1009
21:50
V
12 °C 10 km+ - 180° 180° 7 kt METAR EDLW 301950Z 18007KT CAVOK 12/06 Q1009
21:20
V
11 °C 10 km+ - 180° 180° 7 kt METAR EDLW 301920Z 18007KT CAVOK 11/06 Q1009
20:50
V
11 °C 10 km+ - 180° 180° 6 kt METAR EDLW 301850Z 18006KT CAVOK 11/06 Q1009
20:20
V
11 °C 10 km+ - 190° 190° 5 kt METAR EDLW 301820Z 19005KT CAVOK 11/06 Q1009
19:50
V
11 °C 10 km+ - 180° 180° 5 kt METAR EDLW 301750Z 18005KT CAVOK 11/06 Q1009
19:20
V
12 °C 10 km+ - 190° 190° 5 kt METAR EDLW 301720Z 19005KT CAVOK 12/05 Q1009
18:50
V
13 °C 10 km+ - 180° 180° 5 kt METAR EDLW 301650Z 18005KT CAVOK 13/06 Q1009
18:20
V
15 °C 10 km+ - 190° 190° 7 kt METAR EDLW 301620Z 19007KT CAVOK 15/06 Q1009
17:50
V
15 °C 10 km+ - 210° 210° 10 kt METAR EDLW 301550Z 21010KT CAVOK 15/06 Q1009
17:20
V
15 °C 10 km+ - 200° 200° 9 kt METAR EDLW 301520Z 20009KT CAVOK 15/05 Q1009
16:50
V
15 °C 10 km+ - 220° 220° 11 kt METAR EDLW 301450Z 22011KT CAVOK 15/06 Q1010
Starsze dane

My i osoby trzecie śledzimy twoje zachowanie w internecie na naszej stronie za pomocą plików cookie. Jeśli kontynuujesz, zakładamy, że zgadzasz się z naszą polityką plików cookie. Dowiedz się więcej